Time;durP1;ratioP1;P1;durP2;ratioP2;P2;SDS_P1;SDS_P2;PMS_P1;PMS_P2;Temp;Humidity;BMP_temperature;BMP_pressure;BME280_temperature;BME280_humidity;BME280_pressure;Samples;Min_cycle;Max_cycle;Signal;HPM_P1;HPM_P2
2021/06/25 00:02:23;;;;;;;22.90;20.40;;;18.40;99.90;;;;;;5091796;28;20288;-72
2021/06/25 00:04:49;;;;;;;22.43;19.70;;;18.40;99.90;;;;;;5093400;28;20179;-71
2021/06/25 00:07:15;;;;;;;22.90;19.03;;;18.40;99.90;;;;;;5093296;28;20528;-72
2021/06/25 00:09:40;;;;;;;22.07;19.63;;;18.40;99.90;;;;;;5092079;28;20268;-71
2021/06/25 00:12:08;;;;;;;24.20;21.00;;;18.40;99.90;;;;;;5092943;28;20183;-71
2021/06/25 00:14:34;;;;;;;25.63;23.00;;;18.40;99.90;;;;;;5091353;28;20255;-71
2021/06/25 00:17:01;;;;;;;25.00;22.27;;;18.40;99.90;;;;;;5093176;28;20411;-71
2021/06/25 00:19:27;;;;;;;25.00;22.23;;;18.40;99.90;;;;;;5093117;28;20496;-72
2021/06/25 00:21:52;;;;;;;27.50;22.37;;;18.30;99.90;;;;;;5093527;28;20466;-72
2021/06/25 00:24:18;;;;;;;26.60;23.30;;;18.30;99.90;;;;;;5082813;28;20588;-72
2021/06/25 00:26:43;;;;;;;26.00;22.20;;;18.30;99.90;;;;;;5073276;28;20181;-72
2021/06/25 00:29:09;;;;;;;26.20;22.10;;;18.30;99.90;;;;;;5073498;28;20178;-73
2021/06/25 00:31:36;;;;;;;26.63;22.00;;;18.20;99.90;;;;;;5073339;28;20182;-72
2021/06/25 00:34:02;;;;;;;26.23;20.80;;;18.20;99.90;;;;;;5074082;28;20831;-72
2021/06/25 00:36:28;;;;;;;23.47;20.80;;;18.20;99.90;;;;;;5073052;28;20454;-72
2021/06/25 00:38:53;;;;;;;24.83;20.93;;;18.20;99.90;;;;;;5073113;28;20881;-72
2021/06/25 00:41:19;;;;;;;23.97;20.90;;;18.20;99.90;;;;;;5072687;28;20205;-72
2021/06/25 00:43:45;;;;;;;26.40;21.20;;;18.20;99.90;;;;;;5072891;28;20205;-72
2021/06/25 00:46:11;;;;;;;29.00;22.23;;;18.20;99.90;;;;;;5073832;28;20194;-72
2021/06/25 00:48:37;;;;;;;28.57;23.00;;;18.20;99.90;;;;;;5074631;28;20189;-71
2021/06/25 00:51:03;;;;;;;28.05;23.35;;;18.10;99.90;;;;;;5076253;28;20491;-72
2021/06/25 00:53:29;;;;;;;27.30;23.20;;;18.00;99.90;;;;;;5076111;28;20170;-73
2021/06/25 00:55:54;;;;;;;23.60;21.10;;;18.00;99.90;;;;;;5077322;28;20227;-72
2021/06/25 00:58:21;;;;;;;24.87;20.87;;;18.00;99.90;;;;;;5075990;28;20646;-72
2021/06/25 01:00:47;;;;;;;23.20;20.70;;;18.10;99.90;;;;;;5076394;28;20216;-73
2021/06/25 01:03:14;;;;;;;24.83;22.07;;;18.00;99.90;;;;;;5075948;28;20408;-73
2021/06/25 01:05:40;;;;;;;25.10;21.67;;;18.00;99.90;;;;;;5076148;28;20430;-73
2021/06/25 01:08:07;;;;;;;28.10;21.83;;;17.90;99.90;;;;;;5077496;28;20484;-72
2021/06/25 01:10:38;;;;;;;25.13;22.53;;;17.90;99.90;;;;;;5075775;28;20404;-72
2021/06/25 01:13:05;;;;;;;29.40;23.83;;;17.80;99.90;;;;;;5077937;28;20415;-72
2021/06/25 01:15:30;;;;;;;25.23;21.63;;;17.70;99.90;;;;;;5079278;28;20420;-73
2021/06/25 01:17:56;;;;;;;28.30;22.60;;;17.70;99.90;;;;;;5077335;28;20410;-72
2021/06/25 01:20:27;;;;;;;27.17;23.40;;;17.70;99.90;;;;;;5075616;28;20300;-72
2021/06/25 01:22:53;;;;;;;25.87;22.17;;;17.70;99.90;;;;;;5075926;28;20161;-72
2021/06/25 01:25:22;;;;;;;27.30;22.73;;;17.60;99.90;;;;;;5076398;28;20443;-72
2021/06/25 01:27:49;;;;;;;24.60;20.80;;;17.60;99.90;;;;;;5076063;28;20406;-72
2021/06/25 01:30:24;;;;;;;25.83;22.07;;;17.60;99.90;;;;;;5095764;28;20412;-72
2021/06/25 01:32:50;;;;;;;28.87;22.53;;;17.60;99.90;;;;;;5095540;28;20414;-72
2021/06/25 01:35:16;;;;;;;27.00;24.07;;;17.60;99.90;;;;;;5095476;28;20426;-72
2021/06/25 01:37:42;;;;;;;23.43;20.90;;;17.60;99.90;;;;;;5089705;28;20448;-72
2021/06/25 01:40:11;;;;;;;28.13;25.23;;;17.60;99.90;;;;;;5081279;28;20418;-72
2021/06/25 01:42:38;;;;;;;27.03;23.70;;;17.60;99.90;;;;;;5075023;28;20208;-72
2021/06/25 01:45:13;;;;;;;28.37;23.10;;;17.50;99.90;;;;;;5075680;28;20423;-72
2021/06/25 01:47:40;;;;;;;27.60;22.57;;;17.60;99.90;;;;;;5079696;28;20402;-72
2021/06/25 01:50:09;;;;;;;29.90;23.83;;;17.50;99.90;;;;;;5100632;28;20438;-72
2021/06/25 01:52:35;;;;;;;30.77;23.77;;;17.30;99.90;;;;;;5114612;28;20514;-72
2021/06/25 01:55:01;;;;;;;30.10;24.07;;;17.10;99.90;;;;;;5096427;28;20491;-72
2021/06/25 01:57:31;;;;;;;26.50;23.60;;;17.10;99.90;;;;;;5095010;28;20431;-73
2021/06/25 01:59:56;;;;;;;28.80;23.60;;;17.10;99.90;;;;;;5093070;28;20419;-73
2021/06/25 02:02:22;;;;;;;28.53;22.97;;;17.20;99.90;;;;;;5095269;28;20477;-72
2021/06/25 02:04:47;;;;;;;27.50;23.60;;;17.20;99.90;;;;;;5094982;28;20173;-72
2021/06/25 02:07:13;;;;;;;30.20;23.70;;;17.20;99.90;;;;;;5094946;28;20225;-73
2021/06/25 02:09:39;;;;;;;29.30;24.20;;;17.10;99.90;;;;;;5094550;28;20176;-73
2021/06/25 02:12:05;;;;;;;31.40;24.30;;;17.10;99.90;;;;;;5093252;28;20177;-73
2021/06/25 02:14:31;;;;;;;29.40;24.67;;;17.10;99.90;;;;;;5094852;28;20560;-73
2021/06/25 02:16:57;;;;;;;29.03;23.30;;;17.00;99.90;;;;;;5095106;28;20944;-73
2021/06/25 02:19:23;;;;;;;27.17;23.33;;;17.00;99.90;;;;;;5096101;28;20537;-73
2021/06/25 02:21:48;;;;;;;28.57;24.00;;;17.10;99.90;;;;;;5087002;28;20483;-72
2021/06/25 02:24:14;;;;;;;30.57;24.27;;;17.10;99.90;;;;;;5076511;28;20180;-73
2021/06/25 02:26:40;;;;;;;27.90;22.70;;;17.00;99.90;;;;;;5082073;28;20662;-72
2021/06/25 02:29:05;;;;;;;29.60;23.93;;;17.10;99.90;;;;;;5080364;28;20177;-72
2021/06/25 02:31:31;;;;;;;29.93;24.27;;;17.00;99.90;;;;;;5082406;28;20451;-73
2021/06/25 02:33:57;;;;;;;30.50;24.20;;;17.00;99.90;;;;;;5102716;28;20224;-73
2021/06/25 02:36:22;;;;;;;31.90;25.20;;;17.00;99.90;;;;;;5103835;28;20200;-70
2021/06/25 02:38:48;;;;;;;32.40;26.43;;;17.00;99.90;;;;;;5104947;28;20564;-71
2021/06/25 02:41:13;;;;;;;26.63;22.63;;;16.90;99.90;;;;;;5104540;28;20196;-71
2021/06/25 02:43:39;;;;;;;34.20;24.83;;;16.90;99.90;;;;;;5103208;28;20173;-71
2021/06/25 02:46:04;;;;;;;32.20;25.03;;;16.90;99.90;;;;;;5106654;28;20193;-71
2021/06/25 02:48:30;;;;;;;25.33;21.27;;;17.00;99.90;;;;;;5108846;28;20169;-71
2021/06/25 02:50:55;;;;;;;28.73;24.00;;;16.90;99.90;;;;;;5111628;28;20193;-72
2021/06/25 02:53:21;;;;;;;30.47;24.53;;;16.90;99.90;;;;;;5108019;28;20180;-72
2021/06/25 02:55:52;;;;;;;34.03;26.80;;;16.90;99.90;;;;;;5104722;28;20499;-72
2021/06/25 02:58:22;;;;;;;32.73;25.83;;;16.90;99.90;;;;;;5107073;28;20286;-71
2021/06/25 03:00:49;;;;;;;28.83;24.20;;;16.90;99.90;;;;;;5105823;28;20462;-71
2021/06/25 03:03:15;;;;;;;30.13;25.13;;;16.90;99.90;;;;;;5103184;28;20927;-72
2021/06/25 03:05:41;;;;;;;29.30;23.97;;;16.80;99.90;;;;;;5103741;28;20415;-71
2021/06/25 03:08:06;;;;;;;29.70;23.90;;;16.80;99.90;;;;;;5101460;28;20517;-72
2021/06/25 03:10:32;;;;;;;29.80;24.50;;;16.70;99.90;;;;;;5099386;28;20212;-72
2021/06/25 03:12:57;;;;;;;32.73;23.57;;;16.70;99.90;;;;;;5092513;28;20513;-72
2021/06/25 03:15:28;;;;;;;31.03;25.13;;;16.70;99.90;;;;;;5082379;28;20197;-72
2021/06/25 03:17:54;;;;;;;29.20;24.00;;;16.70;99.90;;;;;;5075127;28;20219;-72
2021/06/25 03:20:20;;;;;;;32.53;24.47;;;16.70;99.90;;;;;;5074504;28;20500;-72
2021/06/25 03:22:45;;;;;;;30.13;24.70;;;16.70;99.90;;;;;;5075466;28;20192;-72
2021/06/25 03:25:11;;;;;;;29.23;25.20;;;16.60;99.90;;;;;;5093940;28;20246;-71
2021/06/25 03:27:37;;;;;;;35.30;25.77;;;16.50;99.90;;;;;;5094502;28;20537;-72
2021/06/25 03:30:04;;;;;;;30.40;24.23;;;16.50;99.90;;;;;;5094140;28;20345;-72
2021/06/25 03:32:30;;;;;;;31.30;24.40;;;16.50;99.90;;;;;;5094192;28;20884;-72
2021/06/25 03:34:56;;;;;;;32.70;25.10;;;16.50;99.90;;;;;;5080103;28;20469;-71
2021/06/25 03:37:21;;;;;;;31.73;24.67;;;16.50;99.90;;;;;;5077189;28;20575;-72
2021/06/25 03:39:47;;;;;;;28.57;24.00;;;16.50;99.90;;;;;;5084644;28;20541;-72
2021/06/25 03:42:13;;;;;;;33.57;24.90;;;16.50;99.90;;;;;;5093653;28;20681;-72
2021/06/25 03:44:38;;;;;;;33.50;25.10;;;16.40;99.90;;;;;;5091444;28;20252;-72
2021/06/25 03:47:04;;;;;;;30.37;24.30;;;16.40;99.90;;;;;;5093585;28;20222;-73
2021/06/25 03:49:30;;;;;;;33.77;26.40;;;16.40;99.90;;;;;;5094287;28;20165;-72
2021/06/25 03:51:56;;;;;;;33.03;25.50;;;16.40;99.90;;;;;;5100317;28;20176;-72
2021/06/25 03:54:22;;;;;;;32.47;25.90;;;16.40;99.90;;;;;;5105318;28;20407;-72
2021/06/25 03:56:47;;;;;;;31.40;24.43;;;16.40;99.90;;;;;;5087930;28;20447;-73
2021/06/25 03:59:13;;;;;;;32.00;24.63;;;16.40;99.90;;;;;;5074948;28;20197;-71
2021/06/25 04:01:38;;;;;;;33.07;25.90;;;16.40;99.90;;;;;;5072898;28;20201;-71
2021/06/25 04:04:04;;;;;;;32.53;24.43;;;16.40;99.90;;;;;;5073014;28;20172;-71
2021/06/25 04:06:29;;;;;;;30.60;23.97;;;16.30;99.90;;;;;;5076756;28;20197;-73
2021/06/25 04:08:55;;;;;;;32.10;25.03;;;16.30;99.90;;;;;;5079042;28;20503;-73
2021/06/25 04:11:21;;;;;;;36.10;25.27;;;16.30;99.90;;;;;;5073251;28;20178;-72
2021/06/25 04:13:47;;;;;;;30.70;24.80;;;16.20;99.90;;;;;;5073389;28;20176;-73
2021/06/25 04:16:13;;;;;;;29.40;24.00;;;16.30;99.90;;;;;;5077784;28;20686;-71
2021/06/25 04:18:38;;;;;;;27.77;23.07;;;16.40;99.90;;;;;;5073333;28;20437;-72
2021/06/25 04:21:04;;;;;;;28.93;24.20;;;16.40;99.90;;;;;;5075422;28;20607;-73
2021/06/25 04:23:30;;;;;;;32.57;23.73;;;16.40;99.90;;;;;;5082435;28;20200;-72
2021/06/25 04:25:55;;;;;;;25.60;22.20;;;16.40;99.90;;;;;;5086658;28;20224;-72
2021/06/25 04:28:21;;;;;;;27.55;21.67;;;16.50;99.90;;;;;;5089038;28;20417;-72
2021/06/25 04:30:47;;;;;;;27.77;22.87;;;16.60;99.90;;;;;;5078125;28;20636;-72
2021/06/25 04:33:13;;;;;;;27.13;20.70;;;16.70;99.90;;;;;;5084156;28;20938;-75
2021/06/25 04:35:41;;;;;;;25.47;20.80;;;16.70;99.90;;;;;;5096821;28;20549;-72
2021/06/25 04:38:07;;;;;;;23.80;19.40;;;16.80;99.90;;;;;;5093963;28;20450;-74
2021/06/25 04:40:36;;;;;;;26.70;20.77;;;16.90;99.90;;;;;;5093524;28;20883;-73
2021/06/25 04:43:01;;;;;;;27.93;21.60;;;16.90;99.90;;;;;;5096321;28;20406;-72
2021/06/25 04:45:27;;;;;;;25.43;20.30;;;17.00;99.90;;;;;;5087827;28;20443;-73
2021/06/25 04:47:52;;;;;;;26.90;19.57;;;17.10;99.90;;;;;;5089505;28;20673;-72
2021/06/25 04:50:18;;;;;;;23.60;20.47;;;17.20;99.90;;;;;;5095457;28;20185;-72
2021/06/25 04:52:43;;;;;;;26.37;21.93;;;17.10;99.90;;;;;;5095547;28;20583;-72
2021/06/25 04:55:09;;;;;;;27.13;20.87;;;17.20;99.90;;;;;;5096106;28;20610;-73
2021/06/25 04:57:37;;;;;;;24.80;20.03;;;17.20;99.90;;;;;;5097014;28;20184;-72
2021/06/25 05:00:05;;;;;;;26.27;20.30;;;17.20;99.90;;;;;;5083554;28;20584;-72
2021/06/25 05:02:31;;;;;;;27.27;21.47;;;17.30;99.90;;;;;;5075825;28;20448;-72
2021/06/25 05:04:57;;;;;;;24.30;20.50;;;17.30;99.90;;;;;;5075940;28;20430;-72
2021/06/25 05:07:22;;;;;;;28.27;21.23;;;17.30;99.90;;;;;;5089351;28;20223;-72
2021/06/25 05:09:48;;;;;;;25.73;19.93;;;17.40;99.90;;;;;;5089907;28;20176;-72
2021/06/25 05:12:13;;;;;;;23.70;19.80;;;17.40;99.90;;;;;;5076683;28;20236;-73
2021/06/25 05:14:39;;;;;;;27.00;20.73;;;17.40;99.90;;;;;;5075323;28;20176;-72
2021/06/25 05:17:05;;;;;;;24.33;20.30;;;17.40;99.90;;;;;;5075971;28;20169;-72
2021/06/25 05:19:30;;;;;;;30.97;21.57;;;17.40;99.90;;;;;;5075841;28;20430;-72
2021/06/25 05:21:56;;;;;;;25.10;19.50;;;17.50;99.90;;;;;;5076522;28;20225;-72
2021/06/25 05:24:22;;;;;;;25.73;21.13;;;17.50;99.90;;;;;;5075587;28;20180;-72
2021/06/25 05:26:48;;;;;;;23.47;20.70;;;17.40;99.90;;;;;;5075360;28;20736;-72
2021/06/25 05:29:14;;;;;;;27.83;22.37;;;17.50;99.90;;;;;;5076840;28;20420;-72
2021/06/25 05:31:39;;;;;;;28.77;21.43;;;17.50;99.90;;;;;;5071971;28;20174;-72
2021/06/25 05:34:05;;;;;;;29.40;22.63;;;17.40;99.90;;;;;;5073865;28;20185;-72
2021/06/25 05:36:30;;;;;;;24.73;21.63;;;17.50;99.90;;;;;;5076554;28;20228;-72
2021/06/25 05:38:56;;;;;;;28.63;23.40;;;17.60;99.90;;;;;;5076670;28;20165;-72
2021/06/25 05:41:21;;;;;;;28.60;23.03;;;17.50;99.90;;;;;;5077595;28;20667;-72
2021/06/25 05:43:47;;;;;;;37.00;25.13;;;17.50;99.90;;;;;;5075202;28;20185;-72
2021/06/25 05:46:13;;;;;;;32.50;24.90;;;17.50;99.90;;;;;;5075677;28;20196;-72
2021/06/25 05:48:39;;;;;;;32.83;24.00;;;17.50;99.90;;;;;;5089326;28;20177;-73
2021/06/25 05:51:06;;;;;;;35.60;26.60;;;17.50;99.90;;;;;;5095619;28;20808;-73
2021/06/25 05:53:32;;;;;;;30.87;26.00;;;17.50;99.90;;;;;;5095163;28;20169;-73
2021/06/25 05:55:58;;;;;;;36.10;25.90;;;17.60;99.90;;;;;;5099654;28;20484;-72
2021/06/25 05:58:23;;;;;;;35.87;26.13;;;17.60;99.90;;;;;;5094150;28;20433;-72
2021/06/25 06:00:49;;;;;;;33.50;26.40;;;17.60;99.90;;;;;;5086200;28;20520;-72
2021/06/25 06:03:14;;;;;;;38.80;26.43;;;17.60;99.90;;;;;;5082718;28;20162;-72
2021/06/25 06:05:40;;;;;;;34.53;26.07;;;17.60;99.90;;;;;;5085264;28;20215;-72
2021/06/25 06:08:06;;;;;;;37.93;27.87;;;17.50;99.90;;;;;;5075740;28;20506;-73
2021/06/25 06:10:32;;;;;;;32.77;25.50;;;17.50;99.90;;;;;;5077100;28;20176;-73
2021/06/25 06:12:58;;;;;;;37.53;26.27;;;17.60;99.90;;;;;;5075100;28;20174;-72
2021/06/25 06:15:23;;;;;;;36.40;28.40;;;17.60;99.90;;;;;;5074598;28;20444;-73
2021/06/25 06:17:49;;;;;;;34.03;25.60;;;17.60;99.90;;;;;;5076731;28;20403;-73
2021/06/25 06:20:22;;;;;;;32.90;25.30;;;17.60;99.90;;;;;;5088400;28;20193;-72
2021/06/25 06:33:49;;;;;;;25.27;21.27;;;17.60;99.90;;;;;;5074948;28;20492;-71
2021/06/25 06:36:24;;;;;;;19.30;15.93;;;17.70;99.90;;;;;;5074521;28;20512;-73
2021/06/25 06:38:51;;;;;;;14.93;12.57;;;17.70;99.50;;;;;;5074676;28;20402;-72
2021/06/25 06:41:17;;;;;;;14.40;11.63;;;17.60;95.30;;;;;;5075592;28;20447;-72
2021/06/25 06:43:43;;;;;;;14.27;12.77;;;17.60;95.60;;;;;;5074386;28;20411;-72
2021/06/25 06:46:10;;;;;;;13.20;11.40;;;17.70;95.50;;;;;;5073838;28;20420;-72
2021/06/25 06:48:40;;;;;;;12.33;11.03;;;17.70;94.30;;;;;;5073754;28;20423;-72
2021/06/25 06:51:06;;;;;;;11.80;10.60;;;17.80;94.30;;;;;;5074524;28;20388;-72
2021/06/25 06:53:33;;;;;;;12.67;11.47;;;17.80;94.30;;;;;;5074036;28;20457;-71
2021/06/25 06:55:59;;;;;;;11.67;10.47;;;17.80;94.60;;;;;;5074058;28;20431;-73
2021/06/25 06:58:25;;;;;;;13.37;11.90;;;17.80;94.00;;;;;;5073708;28;20466;-71
2021/06/25 07:00:50;;;;;;;12.00;10.40;;;17.90;94.30;;;;;;5075213;28;20928;-72
2021/06/25 07:03:16;;;;;;;13.73;12.33;;;18.00;94.70;;;;;;5073590;28;20419;-72
2021/06/25 07:05:41;;;;;;;12.77;11.33;;;18.00;95.70;;;;;;5072446;28;20231;-73
2021/06/25 07:08:07;;;;;;;16.13;12.60;;;18.10;96.80;;;;;;5073887;28;20235;-72
2021/06/25 07:10:33;;;;;;;14.37;12.77;;;18.10;96.80;;;;;;5078873;28;20219;-73
2021/06/25 07:12:58;;;;;;;12.70;11.40;;;18.20;96.80;;;;;;5093495;28;20248;-73
2021/06/25 07:15:24;;;;;;;13.53;12.17;;;18.30;96.70;;;;;;5094112;28;20184;-72
2021/06/25 07:17:49;;;;;;;14.40;12.90;;;18.40;96.50;;;;;;5093828;28;20545;-72
2021/06/25 07:20:15;;;;;;;14.50;12.50;;;18.40;96.40;;;;;;5093947;28;20266;-72
2021/06/25 07:22:41;;;;;;;14.23;12.83;;;18.40;96.70;;;;;;5091908;28;20221;-72
2021/06/25 07:25:07;;;;;;;13.37;12.03;;;18.40;96.80;;;;;;5093905;28;20185;-73
2021/06/25 07:27:34;;;;;;;15.70;14.00;;;18.50;96.80;;;;;;5093871;28;20183;-73
2021/06/25 07:29:59;;;;;;;17.80;15.90;;;18.60;96.70;;;;;;5093048;28;20412;-72
2021/06/25 07:32:27;;;;;;;16.23;14.10;;;18.70;96.80;;;;;;5091766;28;20225;-72
2021/06/25 07:34:52;;;;;;;16.80;15.00;;;18.80;96.80;;;;;;5093669;28;20169;-72
2021/06/25 07:37:19;;;;;;;17.70;14.70;;;18.90;96.70;;;;;;5093383;28;20422;-72
2021/06/25 07:39:44;;;;;;;19.20;15.80;;;19.10;96.60;;;;;;5093530;28;20626;-72
2021/06/25 07:42:10;;;;;;;16.53;14.83;;;19.00;96.50;;;;;;5091938;28;20501;-72
2021/06/25 07:44:35;;;;;;;19.17;16.20;;;19.10;96.60;;;;;;5093495;28;20193;-72
2021/06/25 07:47:01;;;;;;;18.97;16.00;;;19.20;96.50;;;;;;5093493;28;20637;-73
2021/06/25 07:49:26;;;;;;;16.60;13.90;;;19.20;96.70;;;;;;5093697;28;20169;-72
2021/06/25 07:51:52;;;;;;;14.30;12.80;;;19.30;96.40;;;;;;5093544;28;20714;-72
2021/06/25 07:54:18;;;;;;;15.40;13.80;;;19.50;96.50;;;;;;5091412;28;20189;-72
2021/06/25 07:56:43;;;;;;;20.17;15.70;;;19.70;96.40;;;;;;5094568;28;20212;-72
2021/06/25 07:59:09;;;;;;;17.10;14.40;;;19.80;95.90;;;;;;5097989;28;20212;-72
2021/06/25 08:01:35;;;;;;;16.00;13.90;;;19.70;95.50;;;;;;5096118;28;20199;-73
2021/06/25 08:04:00;;;;;;;14.20;12.90;;;19.70;95.70;;;;;;5097518;28;20625;-73
2021/06/25 08:06:28;;;;;;;16.13;13.97;;;19.80;95.50;;;;;;5097223;28;20283;-73
2021/06/25 08:08:54;;;;;;;14.33;12.57;;;19.70;95.20;;;;;;5097198;28;20527;-72
2021/06/25 08:11:19;;;;;;;16.93;13.50;;;19.70;95.30;;;;;;5097088;28;20411;-72
2021/06/25 08:13:45;;;;;;;15.13;13.30;;;19.60;95.30;;;;;;5095588;28;20444;-73
2021/06/25 08:16:10;;;;;;;15.53;13.27;;;19.60;95.60;;;;;;5097810;28;20276;-73
2021/06/25 08:18:36;;;;;;;15.73;14.00;;;19.60;95.80;;;;;;5098314;28;20200;-73
2021/06/25 08:21:01;;;;;;;16.07;13.67;;;19.60;95.80;;;;;;5098379;28;20197;-73
2021/06/25 08:23:27;;;;;;;15.93;14.20;;;19.70;95.70;;;;;;5096487;28;20634;-73
2021/06/25 08:25:53;;;;;;;16.37;14.77;;;19.80;95.50;;;;;;5097289;28;20188;-73
2021/06/25 08:28:18;;;;;;;18.50;16.20;;;19.70;95.80;;;;;;5096947;28;20263;-73
2021/06/25 08:30:44;;;;;;;16.30;14.27;;;19.80;95.80;;;;;;5097123;28;20614;-72
2021/06/25 08:33:09;;;;;;;18.03;14.20;;;19.90;95.80;;;;;;5093937;28;20291;-72
2021/06/25 08:35:35;;;;;;;15.57;13.90;;;20.00;95.70;;;;;;5096748;28;20556;-73
2021/06/25 08:38:00;;;;;;;16.47;14.63;;;20.00;95.60;;;;;;5096995;28;20169;-73
2021/06/25 08:40:26;;;;;;;19.53;15.83;;;20.00;95.70;;;;;;5097160;28;20199;-74
2021/06/25 08:42:52;;;;;;;17.30;15.50;;;20.10;95.70;;;;;;5096742;28;20204;-73
2021/06/25 08:45:18;;;;;;;19.10;13.60;;;20.20;95.60;;;;;;5095431;28;20199;-72
2021/06/25 08:47:47;;;;;;;15.70;14.10;;;20.40;95.60;;;;;;5096667;28;20177;-72
2021/06/25 08:50:15;;;;;;;17.10;15.37;;;20.50;95.70;;;;;;5095264;28;20418;-73
2021/06/25 08:52:48;;;;;;;18.00;14.82;;;20.60;95.60;;;;;;5096409;28;20327;-72
2021/06/25 08:55:15;;;;;;;21.20;15.23;;;20.70;95.50;;;;;;5095166;28;20238;-73
2021/06/25 08:57:42;;;;;;;16.50;14.90;;;20.70;95.30;;;;;;5096669;28;20414;-71
2021/06/25 09:00:12;;;;;;;14.93;13.40;;;20.80;95.30;;;;;;5097233;28;20411;-72
2021/06/25 09:02:38;;;;;;;15.73;14.13;;;20.80;95.20;;;;;;5096660;28;20454;-73
2021/06/25 09:05:07;;;;;;;16.83;15.23;;;20.90;95.20;;;;;;5096068;28;20439;-73
2021/06/25 09:07:44;;;;;;;17.40;14.47;;;20.80;94.80;;;;;;5096676;28;20514;-71
2021/06/25 09:10:11;;;;;;;16.80;15.00;;;20.90;94.90;;;;;;5096291;28;20422;-72
2021/06/25 09:12:37;;;;;;;17.20;15.50;;;21.00;94.70;;;;;;5096418;28;20407;-73
2021/06/25 09:15:12;;;;;;;17.90;15.00;;;21.00;94.50;;;;;;5081969;28;20475;-71
2021/06/25 09:17:55;;;;;;;17.10;15.30;;;21.00;94.30;;;;;;5076035;28;20451;-72
2021/06/25 09:20:41;;;;;;;14.90;13.40;;;21.30;94.20;;;;;;5076710;28;20404;-73
2021/06/25 09:23:09;;;;;;;16.27;13.10;;;21.50;94.00;;;;;;5076518;28;20403;-73
2021/06/25 09:25:48;;;;;;;17.13;13.60;;;21.80;93.70;;;;;;5079598;28;20470;-73
2021/06/25 09:28:21;;;;;;;15.33;13.93;;;21.80;93.60;;;;;;5089583;28;20925;-73
2021/06/25 09:30:47;;;;;;;16.13;14.07;;;21.90;93.20;;;;;;5096487;28;20486;-73
2021/06/25 09:33:12;;;;;;;13.97;12.57;;;22.00;93.20;;;;;;5095696;28;20968;-73
2021/06/25 09:35:38;;;;;;;13.97;12.47;;;22.10;92.90;;;;;;5096342;28;20423;-73
2021/06/25 09:38:03;;;;;;;14.00;12.50;;;22.20;92.60;;;;;;5096213;28;20161;-73
2021/06/25 09:40:36;;;;;;;17.30;14.47;;;22.40;92.30;;;;;;5092200;28;20177;-73
2021/06/25 09:43:12;;;;;;;13.67;12.37;;;22.20;91.90;;;;;;5095834;28;20233;-73
2021/06/25 09:45:48;;;;;;;14.10;12.80;;;22.10;92.20;;;;;;5096170;28;20434;-73
2021/06/25 09:48:14;;;;;;;12.83;11.53;;;22.20;92.40;;;;;;5096595;28;20892;-73
2021/06/25 09:50:40;;;;;;;13.13;11.83;;;22.30;92.40;;;;;;5088455;28;20422;-73
2021/06/25 09:53:07;;;;;;;16.43;14.70;;;22.50;92.30;;;;;;5089981;28;20174;-72
2021/06/25 09:55:56;;;;;;;14.37;12.27;;;22.30;92.00;;;;;;5074547;28;20431;-71
2021/06/25 09:58:30;;;;;;;15.23;13.73;;;22.20;92.10;;;;;;5075716;28;20451;-72
2021/06/25 10:03:52;;;;;;;17.83;16.13;;;22.20;92.70;;;;;;5078149;28;20975;-73
2021/06/25 10:06:21;;;;;;;16.67;15.03;;;22.20;92.70;;;;;;5084411;28;20466;-72
2021/06/25 10:08:48;;;;;;;15.43;13.93;;;22.10;92.90;;;;;;5074219;28;20815;-72
2021/06/25 10:11:15;;;;;;;15.60;14.00;;;22.10;92.90;;;;;;5076285;28;20420;-71
2021/06/25 10:13:42;;;;;;;16.27;14.57;;;22.20;92.60;;;;;;5075239;28;20447;-71
2021/06/25 10:16:09;;;;;;;17.47;15.37;;;21.90;92.90;;;;;;5074399;28;20442;-71
2021/06/25 10:18:49;;;;;;;16.70;15.00;;;22.00;93.00;;;;;;5074697;28;20396;-72
2021/06/25 10:21:17;;;;;;;16.80;15.13;;;22.20;93.20;;;;;;5077201;28;20773;-73
2021/06/25 10:23:51;;;;;;;14.90;13.50;;;22.20;92.50;;;;;;5094585;28;20414;-71
2021/06/25 10:26:18;;;;;;;16.40;14.60;;;22.30;92.50;;;;;;5093252;28;21027;-72
2021/06/25 10:28:44;;;;;;;17.97;16.17;;;22.50;92.50;;;;;;5095092;28;20435;-73
2021/06/25 10:31:11;;;;;;;16.10;14.43;;;22.30;92.30;;;;;;5094937;28;20418;-73
2021/06/25 10:33:38;;;;;;;15.80;14.20;;;22.10;92.60;;;;;;5092548;28;20476;-75
2021/06/25 10:36:10;;;;;;;15.23;13.63;;;21.90;92.50;;;;;;5094573;28;20983;-73
2021/06/25 10:38:38;;;;;;;18.83;15.30;;;22.00;92.60;;;;;;5094911;28;20441;-73
2021/06/25 10:41:06;;;;;;;17.30;13.50;;;21.90;92.80;;;;;;5094287;28;20482;-73
2021/06/25 10:43:47;;;;;;;16.90;14.70;;;22.10;92.70;;;;;;5092606;28;20799;-71
2021/06/25 10:46:33;;;;;;;16.37;14.67;;;21.90;92.60;;;;;;5094822;28;20794;-72
2021/06/25 10:49:19;;;;;;;15.87;12.63;;;22.00;92.50;;;;;;5094786;28;20824;-73
2021/06/25 10:51:45;;;;;;;17.40;15.60;;;22.10;92.60;;;;;;5094495;28;20422;-72
2021/06/25 10:54:14;;;;;;;16.63;14.93;;;22.10;92.20;;;;;;5092721;28;20422;-72
2021/06/25 10:56:48;;;;;;;16.20;14.60;;;22.10;92.20;;;;;;5094585;28;20410;-73
2021/06/25 10:59:26;;;;;;;17.43;15.67;;;22.20;92.20;;;;;;5094265;28;20787;-72
2021/06/25 11:02:00;;;;;;;16.70;15.00;;;21.80;92.10;;;;;;5094265;28;20450;-72
2021/06/25 11:04:38;;;;;;;15.60;14.00;;;21.50;92.60;;;;;;5085992;28;20427;-71
2021/06/25 11:07:10;;;;;;;14.50;13.10;;;21.50;93.00;;;;;;5073754;28;20419;-72
2021/06/25 11:09:57;;;;;;;16.77;14.57;;;21.70;93.30;;;;;;5073761;28;20415;-72
2021/06/25 11:12:25;;;;;;;15.13;13.53;;;21.90;92.60;;;;;;5073813;28;20905;-73
2021/06/25 11:14:54;;;;;;;15.53;13.90;;;22.00;92.50;;;;;;5080503;28;20415;-73
2021/06/25 11:17:43;;;;;;;14.60;13.10;;;22.00;92.10;;;;;;5093699;28;20467;-72
2021/06/25 11:20:27;;;;;;;18.10;15.70;;;22.10;91.70;;;;;;5093389;28;20743;-73
2021/06/25 11:23:03;;;;;;;15.40;13.80;;;22.10;91.40;;;;;;5088532;28;20455;-74
2021/06/25 11:25:40;;;;;;;16.20;14.60;;;22.10;91.70;;;;;;5080496;28;20437;-71
2021/06/25 11:28:24;;;;;;;16.90;13.73;;;22.10;91.70;;;;;;5085237;28;20497;-72
2021/06/25 11:30:50;;;;;;;13.40;12.03;;;22.30;91.60;;;;;;5063269;28;20455;-72
2021/06/25 11:33:39;;;;;;;13.97;12.10;;;22.60;91.20;;;;;;5075462;28;20431;-71
2021/06/25 11:36:14;;;;;;;14.03;12.53;;;22.80;90.90;;;;;;5079999;28;20535;-73
2021/06/25 11:39:07;;;;;;;15.00;12.97;;;22.80;90.40;;;;;;5078154;28;20958;-72
2021/06/25 11:41:37;;;;;;;14.97;13.47;;;22.80;90.40;;;;;;5072508;28;20497;-72
2021/06/25 11:44:15;;;;;;;15.37;13.77;;;22.70;90.30;;;;;;5087024;28;20449;-73
2021/06/25 11:47:02;;;;;;;16.07;13.47;;;22.50;90.50;;;;;;5082086;28;20430;-72
2021/06/25 11:49:36;;;;;;;15.10;13.60;;;22.40;90.50;;;;;;5071881;28;20435;-73
2021/06/25 11:52:04;;;;;;;15.03;13.63;;;22.50;90.60;;;;;;5074472;28;20471;-73
2021/06/25 11:54:32;;;;;;;13.53;12.23;;;22.50;90.50;;;;;;5080041;28;20779;-72
2021/06/25 11:56:58;;;;;;;15.23;13.63;;;22.60;90.50;;;;;;5082134;28;20435;-72
2021/06/25 11:59:23;;;;;;;15.63;14.23;;;22.60;90.30;;;;;;5077133;28;20951;-72
2021/06/25 12:02:01;;;;;;;14.23;12.40;;;22.60;90.00;;;;;;5077290;28;20664;-72
2021/06/25 12:04:40;;;;;;;17.43;12.20;;;22.50;88.90;;;;;;5078607;28;20204;-72
2021/06/25 12:07:08;;;;;;;12.73;11.40;;;22.50;88.80;;;;;;5085272;28;20538;-71
2021/06/25 12:09:49;;;;;;;13.23;11.73;;;22.60;89.30;;;;;;5073797;28;20430;-73
2021/06/25 12:12:32;;;;;;;12.30;11.00;;;22.70;90.50;;;;;;5085966;28;20518;-72
2021/06/25 12:15:07;;;;;;;13.93;12.00;;;23.00;88.70;;;;;;5087520;28;20446;-72
2021/06/25 12:17:50;;;;;;;12.73;11.43;;;23.10;87.80;;;;;;5075787;28;20558;-72
2021/06/25 12:20:24;;;;;;;14.03;12.10;;;23.30;86.90;;;;;;5082822;28;20512;-72
2021/06/25 12:22:59;;;;;;;13.17;11.87;;;23.50;86.70;;;;;;5079241;28;20453;-72
2021/06/25 12:25:34;;;;;;;13.50;12.20;;;23.40;86.40;;;;;;5087002;28;20941;-72
2021/06/25 12:28:06;;;;;;;13.27;11.87;;;23.30;86.30;;;;;;5086394;28;20436;-73
2021/06/25 12:30:32;;;;;;;13.27;11.97;;;23.20;86.60;;;;;;5087411;28;20447;-72
2021/06/25 12:33:03;;;;;;;14.13;12.60;;;23.30;86.90;;;;;;5087367;28;20487;-73
2021/06/25 12:35:37;;;;;;;13.43;11.73;;;23.50;86.70;;;;;;5088418;28;20669;-73
2021/06/25 12:38:08;;;;;;;15.30;12.50;;;23.60;85.60;;;;;;5086554;28;20964;-73
2021/06/25 12:40:44;;;;;;;12.37;11.27;;;23.50;84.90;;;;;;5087229;28;20907;-72
2021/06/25 12:43:14;;;;;;;12.93;11.63;;;23.60;85.00;;;;;;5088148;28;20851;-72
2021/06/25 12:45:52;;;;;;;13.70;12.23;;;23.40;84.80;;;;;;5092004;28;20449;-71
2021/06/25 12:48:20;;;;;;;12.97;11.87;;;23.60;85.10;;;;;;5081380;28;20419;-73